createdAt,value
2023-05-19T00:01:24.924Z,64.30
2023-05-19T00:03:54.888Z,64.40
2023-05-19T00:06:25.734Z,64.40
2023-05-19T00:08:58.626Z,64.50
2023-05-19T00:11:27.620Z,64.50
2023-05-19T00:13:56.710Z,64.60
2023-05-19T00:16:27.907Z,64.70
2023-05-19T00:18:57.106Z,64.80
2023-05-19T00:21:25.224Z,64.80
2023-05-19T00:23:53.539Z,64.90
2023-05-19T00:26:22.626Z,64.90
2023-05-19T00:29:00.503Z,65.00
2023-05-19T00:31:31.661Z,65.10
2023-05-19T00:33:59.818Z,65.40
2023-05-19T00:36:27.897Z,65.60
2023-05-19T00:38:57.507Z,65.70
2023-05-19T00:41:26.214Z,66.00
2023-05-19T00:43:54.378Z,66.20
2023-05-19T00:46:22.989Z,66.30
2023-05-19T00:48:52.471Z,66.50
2023-05-19T00:51:20.831Z,66.60
2023-05-19T00:53:51.052Z,66.70
2023-05-19T00:56:20.018Z,66.80
2023-05-19T00:58:49.025Z,67.00
2023-05-19T01:01:21.283Z,67.20
2023-05-19T01:03:50.394Z,67.40
2023-05-19T01:06:20.847Z,67.70
2023-05-19T01:08:50.141Z,67.70
2023-05-19T01:11:18.276Z,67.70
2023-05-19T01:13:46.974Z,67.80
2023-05-19T01:16:22.354Z,68.00
2023-05-19T01:18:58.310Z,68.10
2023-05-19T01:22:03.562Z,68.20
2023-05-19T01:25:03.833Z,68.40
2023-05-19T01:28:03.320Z,68.40
2023-05-19T01:30:37.919Z,68.50
2023-05-19T01:33:08.624Z,68.50
2023-05-19T01:35:38.086Z,68.70
2023-05-19T01:38:09.305Z,68.80
2023-05-19T01:40:39.363Z,68.90
2023-05-19T01:43:11.785Z,69.30
2023-05-19T01:45:41.863Z,69.50
2023-05-19T01:48:12.069Z,69.50
2023-05-19T01:50:40.874Z,69.00
2023-05-19T01:53:09.345Z,69.10
2023-05-19T01:55:43.467Z,69.20
2023-05-19T01:58:18.526Z,69.20
2023-05-19T02:00:53.903Z,69.20
2023-05-19T02:03:38.394Z,69.10
2023-05-19T02:06:23.046Z,69.00
2023-05-19T02:08:58.208Z,69.20
2023-05-19T02:11:31.781Z,69.40
2023-05-19T02:14:08.214Z,69.70
2023-05-19T02:16:40.301Z,69.70
2023-05-19T02:19:20.758Z,69.70
2023-05-19T02:21:49.042Z,69.80
2023-05-19T02:24:17.533Z,69.80
2023-05-19T02:26:45.674Z,69.80
2023-05-19T02:29:13.762Z,69.80
2023-05-19T02:31:43.198Z,69.90
2023-05-19T02:34:11.304Z,69.90
2023-05-19T02:36:43.019Z,70.00
2023-05-19T02:39:11.982Z,70.00
2023-05-19T02:41:40.400Z,70.00
2023-05-19T02:44:08.918Z,70.00
2023-05-19T02:46:37.739Z,70.10
2023-05-19T02:49:07.357Z,70.20
2023-05-19T02:51:35.414Z,70.20
2023-05-19T02:54:03.382Z,70.30
2023-05-19T02:56:31.510Z,70.30
2023-05-19T02:58:59.600Z,70.40
2023-05-19T03:01:27.633Z,70.50
2023-05-19T03:03:55.793Z,70.50
2023-05-19T03:06:25.378Z,70.60
2023-05-19T03:08:53.467Z,70.70
2023-05-19T03:11:23.246Z,70.80
2023-05-19T03:13:51.356Z,70.80
2023-05-19T03:16:19.600Z,70.90
2023-05-19T03:18:47.910Z,71.00
2023-05-19T03:21:16.302Z,71.10
2023-05-19T03:23:45.866Z,71.50
2023-05-19T03:26:14.131Z,71.60
2023-05-19T03:28:42.287Z,71.70
2023-05-19T03:31:10.475Z,71.70
2023-05-19T03:33:40.159Z,71.60
2023-05-19T03:36:08.977Z,71.70
2023-05-19T03:38:40.056Z,71.80
2023-05-19T03:41:09.588Z,71.80
2023-05-19T03:43:37.732Z,71.70
2023-05-19T03:46:08.519Z,71.70
2023-05-19T03:49:04.478Z,71.80
2023-05-19T03:51:51.270Z,71.80
2023-05-19T03:54:27.523Z,71.80
2023-05-19T03:56:57.036Z,72.00
2023-05-19T03:59:25.156Z,72.20
2023-05-19T04:01:53.383Z,72.50
2023-05-19T04:04:21.656Z,72.60
2023-05-19T04:06:49.892Z,72.80
2023-05-19T04:09:19.407Z,72.70
2023-05-19T04:11:47.456Z,72.80
2023-05-19T04:14:16.837Z,72.80
2023-05-19T04:16:45.007Z,72.70
2023-05-19T04:19:13.060Z,72.60
2023-05-19T04:21:41.126Z,72.60
2023-05-19T04:24:09.458Z,72.60
2023-05-19T04:26:38.423Z,72.60
2023-05-19T04:29:06.795Z,72.50
2023-05-19T04:31:36.475Z,72.40
2023-05-19T04:34:07.840Z,72.50
2023-05-19T04:36:36.649Z,72.60
2023-05-19T04:39:07.863Z,72.70
2023-05-19T04:41:36.006Z,72.60
2023-05-19T04:44:07.399Z,72.80
2023-05-19T04:46:36.924Z,72.90
2023-05-19T04:49:06.237Z,72.90
2023-05-19T04:51:35.754Z,72.80
2023-05-19T04:54:04.033Z,72.80
2023-05-19T04:56:32.080Z,72.60
2023-05-19T04:59:00.613Z,72.50
2023-05-19T05:01:31.260Z,72.50
2023-05-19T05:04:02.590Z,72.40
2023-05-19T05:06:31.708Z,72.40
2023-05-19T05:09:00.532Z,72.30
2023-05-19T05:11:29.569Z,72.40
2023-05-19T05:13:58.869Z,72.70
2023-05-19T05:16:30.112Z,72.80
2023-05-19T05:19:01.784Z,72.70
2023-05-19T05:21:31.780Z,72.60
2023-05-19T05:24:00.945Z,72.60
2023-05-19T05:26:34.214Z,72.70
2023-05-19T05:29:02.949Z,72.40
2023-05-19T05:31:31.505Z,72.30
2023-05-19T05:34:01.197Z,72.40
2023-05-19T05:36:32.515Z,72.40
2023-05-19T05:39:02.358Z,72.30
2023-05-19T05:41:35.155Z,72.20
2023-05-19T05:44:07.314Z,72.20
2023-05-19T05:46:35.653Z,72.30
2023-05-19T05:49:06.555Z,72.20
2023-05-19T05:51:35.861Z,72.10
2023-05-19T05:54:07.303Z,72.10
2023-05-19T05:56:41.228Z,72.00
2023-05-19T05:59:10.382Z,72.20
2023-05-19T06:01:38.729Z,72.10
2023-05-19T06:04:11.333Z,71.80
2023-05-19T06:06:39.370Z,71.80
2023-05-19T06:09:07.577Z,71.60
2023-05-19T06:11:35.705Z,71.30
2023-05-19T06:14:05.353Z,71.10
2023-05-19T06:16:56.211Z,70.80
2023-05-19T06:19:26.236Z,70.40
2023-05-19T06:21:54.380Z,70.30
2023-05-19T06:24:22.686Z,70.00
2023-05-19T06:26:50.901Z,69.80
2023-05-19T06:29:21.453Z,69.10
2023-05-19T06:31:51.301Z,69.00
2023-05-19T06:34:21.031Z,68.50
2023-05-19T06:36:50.510Z,68.60
2023-05-19T06:39:20.224Z,68.50
2023-05-19T06:41:48.389Z,68.40
2023-05-19T06:44:36.389Z,67.70
2023-05-19T06:47:04.694Z,67.80
2023-05-19T06:49:32.766Z,67.30
2023-05-19T06:52:02.208Z,67.40
2023-05-19T06:54:30.328Z,67.60
2023-05-19T06:56:58.880Z,67.70
2023-05-19T06:59:27.067Z,67.50
2023-05-19T07:01:55.284Z,66.90
2023-05-19T07:04:23.462Z,66.70
2023-05-19T07:06:51.530Z,66.30
2023-05-19T07:09:21.602Z,66.10
2023-05-19T07:11:50.084Z,66.20
2023-05-19T07:14:18.156Z,65.80
2023-05-19T07:16:46.417Z,65.80
2023-05-19T07:19:15.136Z,65.40
2023-05-19T07:21:44.813Z,65.30
2023-05-19T07:24:12.953Z,65.10
2023-05-19T07:26:42.643Z,65.20
2023-05-19T07:29:10.776Z,65.10
2023-05-19T07:31:38.797Z,65.00
2023-05-19T07:34:06.865Z,65.00
2023-05-19T07:36:35.194Z,64.50
2023-05-19T07:39:03.524Z,65.00
2023-05-19T07:41:32.025Z,64.60
2023-05-19T07:44:07.454Z,64.60
2023-05-19T07:46:36.054Z,64.80
2023-05-19T07:49:04.388Z,64.70
2023-05-19T07:51:32.651Z,64.70
2023-05-19T07:54:01.083Z,64.40
2023-05-19T07:56:29.580Z,64.30
2023-05-19T07:58:57.686Z,64.00
2023-05-19T08:01:27.021Z,63.40
2023-05-19T08:03:55.154Z,63.10
2023-05-19T08:06:23.283Z,62.70
2023-05-19T08:08:51.355Z,63.10
2023-05-19T08:11:19.703Z,62.80
2023-05-19T08:13:49.333Z,62.40
2023-05-19T08:16:17.537Z,63.00
2023-05-19T08:18:47.095Z,62.90
2023-05-19T08:21:15.161Z,62.40
2023-05-19T08:23:43.242Z,62.40
2023-05-19T08:26:11.321Z,62.80
2023-05-19T08:28:39.383Z,62.70
2023-05-19T08:31:07.461Z,62.10
2023-05-19T08:33:35.578Z,61.90
2023-05-19T08:36:05.497Z,61.80
2023-05-19T08:38:39.277Z,60.50
2023-05-19T08:41:07.813Z,61.20
2023-05-19T08:43:36.062Z,60.50
2023-05-19T08:46:06.948Z,60.10
2023-05-19T08:48:40.417Z,60.90
2023-05-19T08:51:19.949Z,61.10
2023-05-19T08:53:52.963Z,60.80
2023-05-19T08:56:23.979Z,61.00
2023-05-19T08:58:52.804Z,60.80
2023-05-19T09:01:21.459Z,60.50
2023-05-19T09:03:50.704Z,60.60
2023-05-19T09:06:20.203Z,60.80
2023-05-19T09:08:48.354Z,61.30
2023-05-19T09:11:16.422Z,61.00
2023-05-19T09:13:44.799Z,61.10
2023-05-19T09:16:13.753Z,60.90
2023-05-19T09:18:42.539Z,60.70
2023-05-19T09:21:11.869Z,61.40
2023-05-19T09:23:41.290Z,61.60
2023-05-19T09:26:10.544Z,61.30
2023-05-19T09:28:38.669Z,60.50
2023-05-19T09:31:08.284Z,60.90
2023-05-19T09:33:38.144Z,60.60
2023-05-19T09:36:08.594Z,60.60
2023-05-19T09:38:37.754Z,60.70
2023-05-19T09:41:08.366Z,60.50
2023-05-19T09:43:36.984Z,60.30
2023-05-19T09:46:06.329Z,60.00
2023-05-19T09:48:34.770Z,59.80
2023-05-19T09:51:03.332Z,59.40
2023-05-19T09:53:32.465Z,59.60
2023-05-19T09:56:02.019Z,59.80
2023-05-19T09:58:36.531Z,59.80
2023-05-19T10:01:06.382Z,60.00
2023-05-19T10:03:35.380Z,59.80
2023-05-19T10:06:05.699Z,60.00
2023-05-19T10:08:36.008Z,59.40
2023-05-19T10:11:04.793Z,59.30
2023-05-19T10:13:38.630Z,59.20
2023-05-19T10:16:07.775Z,59.10
2023-05-19T10:18:39.602Z,59.60
2023-05-19T10:21:09.599Z,59.50
2023-05-19T10:23:37.752Z,59.30
2023-05-19T10:26:07.727Z,59.10
2023-05-19T10:28:41.967Z,59.00
2023-05-19T10:31:14.279Z,59.10
2023-05-19T10:33:57.901Z,58.80
2023-05-19T10:36:37.982Z,58.50
2023-05-19T10:39:08.776Z,58.40
2023-05-19T10:41:44.472Z,58.20
2023-05-19T10:44:19.571Z,58.50
2023-05-19T10:46:47.895Z,58.60
2023-05-19T10:49:22.710Z,58.20
2023-05-19T10:51:50.771Z,58.40
2023-05-19T10:54:19.567Z,58.20
2023-05-19T10:56:48.838Z,58.20
2023-05-19T10:59:37.234Z,58.40
2023-05-19T11:02:05.788Z,58.20
2023-05-19T11:04:52.090Z,59.40
2023-05-19T11:07:21.697Z,59.00
2023-05-19T11:09:52.527Z,59.00
2023-05-19T11:12:25.056Z,57.60
2023-05-19T11:14:56.110Z,58.10
2023-05-19T11:17:27.403Z,58.20
2023-05-19T11:19:57.356Z,58.20
2023-05-19T11:22:26.662Z,58.50
2023-05-19T11:24:56.405Z,58.20
2023-05-19T11:27:27.186Z,58.30
2023-05-19T11:29:57.445Z,58.30
2023-05-19T11:32:29.292Z,58.30
2023-05-19T11:34:58.146Z,58.00
2023-05-19T11:37:26.838Z,58.30
2023-05-19T11:39:54.924Z,58.30
2023-05-19T11:42:23.002Z,57.80
2023-05-19T11:44:51.159Z,57.40
2023-05-19T11:47:21.496Z,57.30
2023-05-19T11:49:50.022Z,57.50
2023-05-19T11:52:18.150Z,57.70
2023-05-19T11:54:49.611Z,57.00
2023-05-19T11:57:17.817Z,57.00
2023-05-19T11:59:48.231Z,56.80
2023-05-19T12:02:20.072Z,56.70
2023-05-19T12:04:49.401Z,56.60
2023-05-19T12:07:19.304Z,56.70
2023-05-19T12:09:48.173Z,57.40
2023-05-19T12:12:18.695Z,57.00
2023-05-19T12:14:48.158Z,57.40
2023-05-19T12:17:19.713Z,57.30
2023-05-19T12:19:50.582Z,57.00
2023-05-19T12:22:20.185Z,57.50
2023-05-19T12:24:48.960Z,57.20
2023-05-19T12:27:20.153Z,57.30
2023-05-19T12:29:52.873Z,56.50
2023-05-19T12:32:23.860Z,56.90
2023-05-19T12:34:53.570Z,56.50
2023-05-19T12:37:21.798Z,56.10
2023-05-19T12:39:50.368Z,56.00
2023-05-19T12:42:19.023Z,56.10
2023-05-19T12:44:50.060Z,56.30
2023-05-19T12:47:19.760Z,56.40
2023-05-19T12:50:02.524Z,56.80
2023-05-19T12:52:32.539Z,56.70
2023-05-19T12:55:01.506Z,56.40
2023-05-19T12:57:32.758Z,56.30
2023-05-19T13:00:06.911Z,56.80
2023-05-19T13:02:36.457Z,56.70
2023-05-19T13:05:06.263Z,56.20
2023-05-19T13:07:35.638Z,55.90
2023-05-19T13:10:03.972Z,56.10
2023-05-19T13:12:32.034Z,56.30
2023-05-19T13:15:00.503Z,55.90
2023-05-19T13:17:28.576Z,55.90
2023-05-19T13:19:56.778Z,56.00
2023-05-19T13:22:26.305Z,55.90
2023-05-19T13:24:54.383Z,56.00
2023-05-19T13:27:24.717Z,55.90
2023-05-19T13:29:53.199Z,56.00
2023-05-19T13:32:21.379Z,55.50
2023-05-19T13:34:49.434Z,55.40
2023-05-19T13:37:17.485Z,55.50
2023-05-19T13:39:47.048Z,55.00
2023-05-19T13:42:16.308Z,54.90
2023-05-19T13:44:44.425Z,54.90
2023-05-19T13:47:12.873Z,54.80
2023-05-19T13:49:41.383Z,54.00
2023-05-19T13:52:09.468Z,53.70
2023-05-19T13:54:37.488Z,53.90
2023-05-19T13:57:07.414Z,53.50
2023-05-19T13:59:45.681Z,53.70
2023-05-19T14:02:21.346Z,54.20
2023-05-19T14:04:49.489Z,53.60
2023-05-19T14:07:17.608Z,53.60
2023-05-19T14:09:46.285Z,53.30
2023-05-19T14:12:15.738Z,54.10
2023-05-19T14:14:43.834Z,54.00
2023-05-19T14:17:11.912Z,54.10
2023-05-19T14:19:40.121Z,53.80
2023-05-19T14:22:08.423Z,53.40
2023-05-19T14:24:37.164Z,53.50
2023-05-19T14:27:05.406Z,52.60
2023-05-19T14:29:35.347Z,52.70
2023-05-19T14:32:03.910Z,52.60
2023-05-19T14:34:32.160Z,52.50
2023-05-19T14:37:00.298Z,52.30
2023-05-19T14:39:28.320Z,51.50
2023-05-19T14:41:56.440Z,50.50
2023-05-19T14:44:24.444Z,49.30
2023-05-19T14:46:53.913Z,48.10
2023-05-19T14:49:22.002Z,47.20
2023-05-19T14:51:49.988Z,45.90
2023-05-19T14:54:18.103Z,45.60
2023-05-19T14:56:46.206Z,44.10
2023-05-19T14:59:14.285Z,42.50
2023-05-19T15:01:42.549Z,42.00
2023-05-19T15:04:12.068Z,41.90
2023-05-19T15:06:40.129Z,41.20
2023-05-19T15:09:08.322Z,40.90
2023-05-19T15:11:36.531Z,39.80
2023-05-19T15:14:04.688Z,39.60
2023-05-19T15:16:32.779Z,39.00
2023-05-19T15:19:00.815Z,38.90
2023-05-19T15:21:30.276Z,38.70
2023-05-19T15:23:58.320Z,38.20
2023-05-19T15:26:27.609Z,37.70
2023-05-19T15:28:57.650Z,37.10
2023-05-19T15:31:25.750Z,37.10
2023-05-19T15:33:53.773Z,37.10
2023-05-19T15:36:21.866Z,37.10
2023-05-19T15:38:51.326Z,37.60
2023-05-19T15:41:19.414Z,37.20
2023-05-19T15:43:47.428Z,36.90
2023-05-19T15:46:16.193Z,37.10
2023-05-19T15:48:44.368Z,37.20
2023-05-19T15:51:12.488Z,36.50
2023-05-19T15:53:40.658Z,35.80
2023-05-19T15:56:10.537Z,35.20
2023-05-19T15:58:38.622Z,34.90
2023-05-19T16:01:06.852Z,34.50
2023-05-19T16:03:35.504Z,34.60
2023-05-19T16:06:03.750Z,34.40
2023-05-19T16:08:31.875Z,34.20
2023-05-19T16:10:59.934Z,34.00
2023-05-19T16:13:30.436Z,34.80
2023-05-19T16:15:58.505Z,35.00
2023-05-19T16:18:26.711Z,35.10
2023-05-19T16:20:54.860Z,35.00
2023-05-19T16:23:24.597Z,35.40
2023-05-19T16:25:52.581Z,34.50
2023-05-19T16:28:22.560Z,34.70
2023-05-19T16:30:53.847Z,34.60
2023-05-19T16:33:21.869Z,33.60
2023-05-19T16:35:50.001Z,33.20
2023-05-19T16:38:18.088Z,33.10
2023-05-19T16:40:46.274Z,33.10
2023-05-19T16:43:14.364Z,33.10
2023-05-19T16:45:42.415Z,33.30
2023-05-19T16:48:12.487Z,33.20
2023-05-19T16:50:40.739Z,33.20
2023-05-19T16:53:08.781Z,32.70
2023-05-19T16:55:36.860Z,32.50
2023-05-19T16:58:05.003Z,32.70
2023-05-19T17:00:33.218Z,32.60
2023-05-19T17:03:01.464Z,32.80
2023-05-19T17:05:31.525Z,33.40
2023-05-19T17:07:59.543Z,33.60
2023-05-19T17:10:27.607Z,33.80
2023-05-19T17:12:55.659Z,33.80
2023-05-19T17:15:23.737Z,34.00
2023-05-19T17:17:51.848Z,33.80
2023-05-19T17:20:19.935Z,33.50
2023-05-19T17:22:49.318Z,33.30
2023-05-19T17:25:17.508Z,33.30
2023-05-19T17:27:45.544Z,33.30
2023-05-19T17:30:14.738Z,33.40
2023-05-19T17:32:42.954Z,33.60
2023-05-19T17:35:11.277Z,33.30
2023-05-19T17:37:39.254Z,33.90
2023-05-19T17:40:10.188Z,33.70
2023-05-19T17:42:38.292Z,33.50
2023-05-19T17:45:07.528Z,33.60
2023-05-19T17:47:35.614Z,33.60
2023-05-19T17:50:03.718Z,33.50
2023-05-19T17:52:32.921Z,33.60
2023-05-19T17:55:01.593Z,33.80
2023-05-19T17:57:32.453Z,33.70
2023-05-19T18:00:01.321Z,34.10
2023-05-19T18:02:30.000Z,34.20
2023-05-19T18:04:58.563Z,34.20
2023-05-19T18:07:28.795Z,34.80
2023-05-19T18:09:58.597Z,35.10
2023-05-19T18:12:26.706Z,34.90
2023-05-19T18:14:56.401Z,35.00
2023-05-19T18:17:24.534Z,35.00
2023-05-19T18:19:52.620Z,35.30
2023-05-19T18:22:20.702Z,35.40
2023-05-19T18:24:48.838Z,35.60
2023-05-19T18:27:16.821Z,35.80
2023-05-19T18:29:44.850Z,36.00
2023-05-19T18:32:16.836Z,36.40
2023-05-19T18:34:44.936Z,36.70
2023-05-19T18:37:12.966Z,37.50
2023-05-19T18:39:41.037Z,38.50
2023-05-19T18:42:09.048Z,39.30
2023-05-19T18:44:37.191Z,39.90
2023-05-19T18:47:05.488Z,40.60
2023-05-19T18:49:34.897Z,41.30
2023-05-19T18:52:02.872Z,42.00
2023-05-19T18:54:32.409Z,42.80
2023-05-19T18:57:01.290Z,43.20
2023-05-19T18:59:29.282Z,43.60
2023-05-19T19:01:57.308Z,43.90
2023-05-19T19:04:25.268Z,44.30
2023-05-19T19:06:54.708Z,44.70
2023-05-19T19:09:22.717Z,45.00
2023-05-19T19:11:50.753Z,45.10
2023-05-19T19:14:19.336Z,45.50
2023-05-19T19:16:47.443Z,45.80
2023-05-19T19:19:15.648Z,46.10
2023-05-19T19:21:43.721Z,46.40
2023-05-19T19:24:13.629Z,46.80
2023-05-19T19:26:41.685Z,46.90
2023-05-19T19:29:09.844Z,47.00
2023-05-19T19:31:37.938Z,47.40
2023-05-19T19:34:09.151Z,47.70
2023-05-19T19:36:37.283Z,48.00
2023-05-19T19:39:05.381Z,48.00
2023-05-19T19:41:34.834Z,48.10
2023-05-19T19:44:02.835Z,48.20
2023-05-19T19:46:31.096Z,48.40
2023-05-19T19:49:00.360Z,48.60
2023-05-19T19:51:28.515Z,48.80
2023-05-19T19:53:56.594Z,49.20
2023-05-19T19:56:26.135Z,49.40
2023-05-19T19:58:56.877Z,49.70
2023-05-19T20:01:27.867Z,50.10
2023-05-19T20:03:57.190Z,50.20
2023-05-19T20:06:25.411Z,50.40
2023-05-19T20:08:53.472Z,50.50
2023-05-19T20:11:22.898Z,50.60
2023-05-19T20:13:51.279Z,50.60
2023-05-19T20:16:20.817Z,50.90
2023-05-19T20:18:49.021Z,51.00
2023-05-19T20:21:17.119Z,51.30
2023-05-19T20:23:45.212Z,51.40
2023-05-19T20:26:13.716Z,51.60
2023-05-19T20:28:41.987Z,51.90
2023-05-19T20:31:10.184Z,52.00
2023-05-19T20:33:39.662Z,52.30
2023-05-19T20:36:08.225Z,52.30
2023-05-19T20:38:36.277Z,52.50
2023-05-19T20:41:04.960Z,52.70
2023-05-19T20:43:33.378Z,52.80
2023-05-19T20:46:03.625Z,52.80
2023-05-19T20:48:31.966Z,53.00
2023-05-19T20:51:01.633Z,53.00
2023-05-19T20:53:29.865Z,53.10
2023-05-19T20:55:58.039Z,53.20
2023-05-19T20:58:26.689Z,53.40
2023-05-19T21:00:57.778Z,53.60
2023-05-19T21:03:27.141Z,53.70
2023-05-19T21:05:56.273Z,53.70
2023-05-19T21:08:27.817Z,53.90
2023-05-19T21:10:56.108Z,54.00
2023-05-19T21:13:24.145Z,54.10
2023-05-19T21:15:52.186Z,54.20
2023-05-19T21:18:20.190Z,54.30
2023-05-19T21:20:48.262Z,54.50
2023-05-19T21:23:16.265Z,54.80
2023-05-19T21:25:45.709Z,54.90
2023-05-19T21:28:13.750Z,54.80
2023-05-19T21:30:41.813Z,54.80
2023-05-19T21:33:10.119Z,54.80
2023-05-19T21:35:38.420Z,55.10
2023-05-19T21:38:22.218Z,55.10
2023-05-19T21:40:53.978Z,55.20
2023-05-19T21:43:22.795Z,55.30
2023-05-19T21:45:50.921Z,55.40
2023-05-19T21:48:19.218Z,55.50
2023-05-19T21:50:47.274Z,55.70
2023-05-19T21:53:15.239Z,55.80
2023-05-19T21:55:43.278Z,55.80
2023-05-19T21:58:12.774Z,55.90
2023-05-19T22:00:40.999Z,56.00
2023-05-19T22:03:09.219Z,56.20
2023-05-19T22:05:38.219Z,56.40
2023-05-19T22:08:06.669Z,56.40
2023-05-19T22:10:36.897Z,56.50
2023-05-19T22:13:05.157Z,56.70
2023-05-19T22:15:34.634Z,56.80
2023-05-19T22:18:02.702Z,56.80
2023-05-19T22:20:30.801Z,56.70
2023-05-19T22:23:01.128Z,56.90
2023-05-19T22:25:29.290Z,57.00
2023-05-19T22:27:57.535Z,57.10
2023-05-19T22:30:25.851Z,57.10
2023-05-19T22:32:55.381Z,57.20
2023-05-19T22:35:24.267Z,57.30
2023-05-19T22:37:52.273Z,57.40
2023-05-19T22:40:20.515Z,57.60
2023-05-19T22:42:48.560Z,57.60
2023-05-19T22:45:16.664Z,57.90
2023-05-19T22:47:44.812Z,57.90
2023-05-19T22:50:14.738Z,58.10
2023-05-19T22:52:42.816Z,58.10
2023-05-19T22:55:11.161Z,58.30
2023-05-19T22:57:39.290Z,58.40
2023-05-19T23:00:09.148Z,58.60
2023-05-19T23:02:37.262Z,58.70
2023-05-19T23:05:05.850Z,58.80
2023-05-19T23:07:35.409Z,58.90
2023-05-19T23:10:04.276Z,59.30
2023-05-19T23:12:32.283Z,59.50
2023-05-19T23:15:00.407Z,59.50
2023-05-19T23:17:28.553Z,59.70
2023-05-19T23:19:56.716Z,59.50
2023-05-19T23:22:24.868Z,59.40
2023-05-19T23:24:54.270Z,59.70
2023-05-19T23:27:22.328Z,60.00
2023-05-19T23:29:51.540Z,60.00
2023-05-19T23:32:19.549Z,60.20
2023-05-19T23:34:48.619Z,60.20
2023-05-19T23:37:16.970Z,60.20
2023-05-19T23:39:45.043Z,60.10
2023-05-19T23:42:14.470Z,60.40
2023-05-19T23:44:42.540Z,60.60
2023-05-19T23:47:10.725Z,60.50
2023-05-19T23:49:38.878Z,60.50
2023-05-19T23:52:07.657Z,60.60
2023-05-19T23:54:35.642Z,60.80
2023-05-19T23:57:04.181Z,60.80
2023-05-19T23:59:33.553Z,60.80
